sensor_id;sensor_type;location;lat;lon;timestamp;temperature;humidity
1011;DHT22;494;48.744;10.106;2023-08-08T00:01:43;12.70;20.00
1011;DHT22;494;48.744;10.106;2023-08-08T00:04:24;12.70;39.30
1011;DHT22;494;48.744;10.106;2023-08-08T00:07:00;12.70;20.90
1011;DHT22;494;48.744;10.106;2023-08-08T00:09:33;12.70;26.80
1011;DHT22;494;48.744;10.106;2023-08-08T00:12:26;12.70;27.70
1011;DHT22;494;48.744;10.106;2023-08-08T00:15:26;12.70;16.30
1011;DHT22;494;48.744;10.106;2023-08-08T00:18:22;12.70;12.00
1011;DHT22;494;48.744;10.106;2023-08-08T00:21:22;12.70;16.60
1011;DHT22;494;48.744;10.106;2023-08-08T00:24:17;12.60;27.70
1011;DHT22;494;48.744;10.106;2023-08-08T00:27:15;12.50;16.00
1011;DHT22;494;48.744;10.106;2023-08-08T00:56:58;12.50;9.60
1011;DHT22;494;48.744;10.106;2023-08-08T00:59:58;12.40;10.20
1011;DHT22;494;48.744;10.106;2023-08-08T01:02:41;12.40;48.00
1011;DHT22;494;48.744;10.106;2023-08-08T01:05:16;12.40;36.10
1011;DHT22;494;48.744;10.106;2023-08-08T01:07:54;12.40;62.70
1011;DHT22;494;48.744;10.106;2023-08-08T01:10:40;12.30;59.60
1011;DHT22;494;48.744;10.106;2023-08-08T01:13:48;12.30;35.90
1011;DHT22;494;48.744;10.106;2023-08-08T01:16:38;12.30;20.20
1011;DHT22;494;48.744;10.106;2023-08-08T01:20:15;12.30;10.10
1011;DHT22;494;48.744;10.106;2023-08-08T01:32:16;12.30;33.50
1011;DHT22;494;48.744;10.106;2023-08-08T01:35:09;12.30;31.70
1011;DHT22;494;48.744;10.106;2023-08-08T01:38:14;12.30;20.90
1011;DHT22;494;48.744;10.106;2023-08-08T01:41:58;12.20;10.50
1011;DHT22;494;48.744;10.106;2023-08-08T01:44:58;12.20;14.80
1011;DHT22;494;48.744;10.106;2023-08-08T01:54:06;12.30;21.70
1011;DHT22;494;48.744;10.106;2023-08-08T01:56:43;12.30;18.80
1011;DHT22;494;48.744;10.106;2023-08-08T01:59:20;12.30;17.70
1011;DHT22;494;48.744;10.106;2023-08-08T02:02:04;12.30;25.70
1011;DHT22;494;48.744;10.106;2023-08-08T02:04:46;12.40;21.20
1011;DHT22;494;48.744;10.106;2023-08-08T02:07:24;12.40;18.60
1011;DHT22;494;48.744;10.106;2023-08-08T02:10:09;12.40;24.00
1011;DHT22;494;48.744;10.106;2023-08-08T02:12:40;12.40;18.40
1011;DHT22;494;48.744;10.106;2023-08-08T02:15:19;12.40;14.40
1011;DHT22;494;48.744;10.106;2023-08-08T02:17:59;12.40;17.30
1011;DHT22;494;48.744;10.106;2023-08-08T02:20:43;12.40;22.20
1011;DHT22;494;48.744;10.106;2023-08-08T02:23:21;12.40;27.30
1011;DHT22;494;48.744;10.106;2023-08-08T02:26:02;12.40;34.60
1011;DHT22;494;48.744;10.106;2023-08-08T02:28:38;12.40;45.40
1011;DHT22;494;48.744;10.106;2023-08-08T02:31:37;12.50;37.00
1011;DHT22;494;48.744;10.106;2023-08-08T02:34:24;12.50;30.90
1011;DHT22;494;48.744;10.106;2023-08-08T02:37:03;12.50;15.50
1011;DHT22;494;48.744;10.106;2023-08-08T02:39:34;12.60;29.30
1011;DHT22;494;48.744;10.106;2023-08-08T02:42:20;12.50;24.70
1011;DHT22;494;48.744;10.106;2023-08-08T02:44:50;12.40;10.60
1011;DHT22;494;48.744;10.106;2023-08-08T02:47:26;12.40;23.70
1011;DHT22;494;48.744;10.106;2023-08-08T02:50:04;12.40;38.50
1011;DHT22;494;48.744;10.106;2023-08-08T02:52:37;12.30;31.50
1011;DHT22;494;48.744;10.106;2023-08-08T02:55:13;12.30;33.20
1011;DHT22;494;48.744;10.106;2023-08-08T02:58:12;12.40;61.00
1011;DHT22;494;48.744;10.106;2023-08-08T03:00:45;12.40;55.20
1011;DHT22;494;48.744;10.106;2023-08-08T03:03:24;12.40;40.40
1011;DHT22;494;48.744;10.106;2023-08-08T03:05:55;12.50;45.00
1011;DHT22;494;48.744;10.106;2023-08-08T03:08:35;12.50;44.50
1011;DHT22;494;48.744;10.106;2023-08-08T03:11:37;12.60;38.10
1011;DHT22;494;48.744;10.106;2023-08-08T03:14:40;12.50;43.90
1011;DHT22;494;48.744;10.106;2023-08-08T03:17:11;12.60;36.70
1011;DHT22;494;48.744;10.106;2023-08-08T03:19:45;12.50;32.90
1011;DHT22;494;48.744;10.106;2023-08-08T03:22:24;12.50;67.10
1011;DHT22;494;48.744;10.106;2023-08-08T03:24:57;12.50;44.10
1011;DHT22;494;48.744;10.106;2023-08-08T03:27:45;12.40;68.30
1011;DHT22;494;48.744;10.106;2023-08-08T03:30:22;12.20;91.00
1011;DHT22;494;48.744;10.106;2023-08-08T03:32:57;12.10;99.90
1011;DHT22;494;48.744;10.106;2023-08-08T03:35:35;11.90;99.90
1011;DHT22;494;48.744;10.106;2023-08-08T03:38:28;11.90;95.40
1011;DHT22;494;48.744;10.106;2023-08-08T03:41:41;11.80;95.30
1011;DHT22;494;48.744;10.106;2023-08-08T04:05:43;12.20;58.50
1011;DHT22;494;48.744;10.106;2023-08-08T04:09:37;12.20;86.60
1011;DHT22;494;48.744;10.106;2023-08-08T04:13:36;12.20;54.60
1011;DHT22;494;48.744;10.106;2023-08-08T04:17:48;12.20;60.50
1011;DHT22;494;48.744;10.106;2023-08-08T04:20:37;12.30;41.80
1011;DHT22;494;48.744;10.106;2023-08-08T04:23:42;12.30;51.90
1011;DHT22;494;48.744;10.106;2023-08-08T04:26:14;12.30;30.90
1011;DHT22;494;48.744;10.106;2023-08-08T04:29:14;12.30;30.10
1011;DHT22;494;48.744;10.106;2023-08-08T04:32:34;12.30;25.70
1011;DHT22;494;48.744;10.106;2023-08-08T04:35:33;12.30;37.80
1011;DHT22;494;48.744;10.106;2023-08-08T04:42:50;12.30;33.60
1011;DHT22;494;48.744;10.106;2023-08-08T04:46:25;12.50;43.80
1011;DHT22;494;48.744;10.106;2023-08-08T04:49:46;12.40;71.40
1011;DHT22;494;48.744;10.106;2023-08-08T04:53:15;12.40;73.40
1011;DHT22;494;48.744;10.106;2023-08-08T04:56:09;12.40;71.10
1011;DHT22;494;48.744;10.106;2023-08-08T04:59:05;12.30;75.70
1011;DHT22;494;48.744;10.106;2023-08-08T05:01:50;12.30;94.60
1011;DHT22;494;48.744;10.106;2023-08-08T05:04:21;12.40;99.90
1011;DHT22;494;48.744;10.106;2023-08-08T05:07:01;12.50;99.90
1011;DHT22;494;48.744;10.106;2023-08-08T05:09:45;12.60;84.30
1011;DHT22;494;48.744;10.106;2023-08-08T05:12:26;12.80;82.10
1011;DHT22;494;48.744;10.106;2023-08-08T05:15:29;12.90;72.50
1011;DHT22;494;48.744;10.106;2023-08-08T05:18:15;12.80;82.60
1011;DHT22;494;48.744;10.106;2023-08-08T05:20:51;12.90;88.50
1011;DHT22;494;48.744;10.106;2023-08-08T05:23:42;13.00;99.90
1011;DHT22;494;48.744;10.106;2023-08-08T05:26:15;13.00;99.90
1011;DHT22;494;48.744;10.106;2023-08-08T05:29:01;13.10;91.60
1011;DHT22;494;48.744;10.106;2023-08-08T05:31:46;13.00;73.80
1011;DHT22;494;48.744;10.106;2023-08-08T05:34:18;12.80;74.10
1011;DHT22;494;48.744;10.106;2023-08-08T05:36:57;12.80;90.10
1011;DHT22;494;48.744;10.106;2023-08-08T05:40:05;12.60;99.90
1011;DHT22;494;48.744;10.106;2023-08-08T05:42:43;12.60;99.90
1011;DHT22;494;48.744;10.106;2023-08-08T05:52:11;12.50;99.90
1011;DHT22;494;48.744;10.106;2023-08-08T05:55:11;12.70;99.90
1011;DHT22;494;48.744;10.106;2023-08-08T06:02:36;13.00;99.90
1011;DHT22;494;48.744;10.106;2023-08-08T06:06:01;13.20;99.90
1011;DHT22;494;48.744;10.106;2023-08-08T06:30:05;14.10;99.90
1011;DHT22;494;48.744;10.106;2023-08-08T06:32:52;14.20;99.90
1011;DHT22;494;48.744;10.106;2023-08-08T06:35:47;14.30;99.90
1011;DHT22;494;48.744;10.106;2023-08-08T06:38:58;14.40;99.90
1011;DHT22;494;48.744;10.106;2023-08-08T06:42:14;14.70;99.90
1011;DHT22;494;48.744;10.106;2023-08-08T08:21:49;20.30;1.00
1011;DHT22;494;48.744;10.106;2023-08-08T08:24:23;20.20;1.00
1011;DHT22;494;48.744;10.106;2023-08-08T08:27:19;20.30;1.00
1011;DHT22;494;48.744;10.106;2023-08-08T08:29:50;20.30;1.00
1011;DHT22;494;48.744;10.106;2023-08-08T08:35:24;20.50;1.00
1011;DHT22;494;48.744;10.106;2023-08-08T08:40:40;20.90;1.00
1011;DHT22;494;48.744;10.106;2023-08-08T08:43:15;21.20;1.00
1011;DHT22;494;48.744;10.106;2023-08-08T08:45:50;21.20;1.00
1011;DHT22;494;48.744;10.106;2023-08-08T08:48:22;21.20;1.00
1011;DHT22;494;48.744;10.106;2023-08-08T08:51:04;21.30;1.00
1011;DHT22;494;48.744;10.106;2023-08-08T08:53:35;21.50;1.00
1011;DHT22;494;48.744;10.106;2023-08-08T08:56:20;21.60;1.00
1011;DHT22;494;48.744;10.106;2023-08-08T08:59:04;22.00;1.00
1011;DHT22;494;48.744;10.106;2023-08-08T09:01:39;22.20;1.00
1011;DHT22;494;48.744;10.106;2023-08-08T09:04:09;22.30;1.00
1011;DHT22;494;48.744;10.106;2023-08-08T09:06:41;22.10;1.00
1011;DHT22;494;48.744;10.106;2023-08-08T09:09:13;21.90;1.00
1011;DHT22;494;48.744;10.106;2023-08-08T09:12:03;21.70;1.00
1011;DHT22;494;48.744;10.106;2023-08-08T09:14:38;21.60;1.00
1011;DHT22;494;48.744;10.106;2023-08-08T09:17:14;21.40;1.00
1011;DHT22;494;48.744;10.106;2023-08-08T09:20:04;21.50;1.00
1011;DHT22;494;48.744;10.106;2023-08-08T09:29:20;21.40;1.00
1011;DHT22;494;48.744;10.106;2023-08-08T09:37:30;21.50;1.00
1011;DHT22;494;48.744;10.106;2023-08-08T09:40:02;21.70;1.00
1011;DHT22;494;48.744;10.106;2023-08-08T09:42:41;21.50;1.00
1011;DHT22;494;48.744;10.106;2023-08-08T09:45:13;21.60;1.00
1011;DHT22;494;48.744;10.106;2023-08-08T09:47:50;21.80;1.00
1011;DHT22;494;48.744;10.106;2023-08-08T09:50:24;22.00;1.00
1011;DHT22;494;48.744;10.106;2023-08-08T09:52:55;22.00;1.00
1011;DHT22;494;48.744;10.106;2023-08-08T09:55:45;22.20;1.00
1011;DHT22;494;48.744;10.106;2023-08-08T09:58:16;22.00;1.00
1011;DHT22;494;48.744;10.106;2023-08-08T10:00:51;22.00;1.00
1011;DHT22;494;48.744;10.106;2023-08-08T10:03:21;21.80;1.00
1011;DHT22;494;48.744;10.106;2023-08-08T10:05:52;21.80;1.00
1011;DHT22;494;48.744;10.106;2023-08-08T10:08:22;21.70;1.00
1011;DHT22;494;48.744;10.106;2023-08-08T10:10:51;21.70;1.00
1011;DHT22;494;48.744;10.106;2023-08-08T10:13:25;21.50;1.00
1011;DHT22;494;48.744;10.106;2023-08-08T10:16:16;21.60;1.00
1011;DHT22;494;48.744;10.106;2023-08-08T10:18:56;21.80;1.00
1011;DHT22;494;48.744;10.106;2023-08-08T10:21:34;22.10;1.00
1011;DHT22;494;48.744;10.106;2023-08-08T10:24:05;22.70;1.00
1011;DHT22;494;48.744;10.106;2023-08-08T10:26:56;23.20;1.00
1011;DHT22;494;48.744;10.106;2023-08-08T10:29:31;23.30;1.00
1011;DHT22;494;48.744;10.106;2023-08-08T10:32:05;23.30;1.00
1011;DHT22;494;48.744;10.106;2023-08-08T10:34:37;23.30;1.00
1011;DHT22;494;48.744;10.106;2023-08-08T10:37:09;23.30;1.00
1011;DHT22;494;48.744;10.106;2023-08-08T10:39:58;23.40;1.00
1011;DHT22;494;48.744;10.106;2023-08-08T10:42:41;23.30;1.00
1011;DHT22;494;48.744;10.106;2023-08-08T10:45:15;23.30;1.00
1011;DHT22;494;48.744;10.106;2023-08-08T10:47:49;23.30;1.00
1011;DHT22;494;48.744;10.106;2023-08-08T10:50:23;23.40;1.00
1011;DHT22;494;48.744;10.106;2023-08-08T10:52:54;23.80;1.00
1011;DHT22;494;48.744;10.106;2023-08-08T10:55:31;24.20;1.00
1011;DHT22;494;48.744;10.106;2023-08-08T10:58:05;24.20;1.00
1011;DHT22;494;48.744;10.106;2023-08-08T11:00:37;24.00;1.00
1011;DHT22;494;48.744;10.106;2023-08-08T11:03:14;24.30;1.00
1011;DHT22;494;48.744;10.106;2023-08-08T11:05:48;24.50;1.00
1011;DHT22;494;48.744;10.106;2023-08-08T11:08:19;24.60;1.00
1011;DHT22;494;48.744;10.106;2023-08-08T11:11:08;24.70;1.00
1011;DHT22;494;48.744;10.106;2023-08-08T11:13:42;24.80;1.00
1011;DHT22;494;48.744;10.106;2023-08-08T11:16:12;24.70;1.00
1011;DHT22;494;48.744;10.106;2023-08-08T11:18:47;24.70;1.00
1011;DHT22;494;48.744;10.106;2023-08-08T11:21:19;24.80;1.00
1011;DHT22;494;48.744;10.106;2023-08-08T11:23:48;24.80;1.00
1011;DHT22;494;48.744;10.106;2023-08-08T11:26:18;25.00;1.00
1011;DHT22;494;48.744;10.106;2023-08-08T11:28:50;25.10;1.00
1011;DHT22;494;48.744;10.106;2023-08-08T12:23:27;25.60;1.00
1011;DHT22;494;48.744;10.106;2023-08-08T12:25:58;26.40;1.00
1011;DHT22;494;48.744;10.106;2023-08-08T12:28:55;26.70;1.00
1011;DHT22;494;48.744;10.106;2023-08-08T12:31:25;27.20;1.00
1011;DHT22;494;48.744;10.106;2023-08-08T12:33:55;27.50;1.00
1011;DHT22;494;48.744;10.106;2023-08-08T12:36:30;27.70;1.00
1011;DHT22;494;48.744;10.106;2023-08-08T12:39:04;27.90;1.00
1011;DHT22;494;48.744;10.106;2023-08-08T12:41:34;27.70;1.00
1011;DHT22;494;48.744;10.106;2023-08-08T12:44:07;27.70;1.00
1011;DHT22;494;48.744;10.106;2023-08-08T12:46:39;27.60;1.00
1011;DHT22;494;48.744;10.106;2023-08-08T12:49:17;27.50;1.00
1011;DHT22;494;48.744;10.106;2023-08-08T12:51:56;27.10;1.00
1011;DHT22;494;48.744;10.106;2023-08-08T12:54:35;27.20;1.00
1011;DHT22;494;48.744;10.106;2023-08-08T12:57:06;27.30;1.00
1011;DHT22;494;48.744;10.106;2023-08-08T12:59:39;27.40;1.00
1011;DHT22;494;48.744;10.106;2023-08-08T13:02:23;27.60;1.00
1011;DHT22;494;48.744;10.106;2023-08-08T13:04:55;27.50;1.00
1011;DHT22;494;48.744;10.106;2023-08-08T13:07:27;27.10;1.00
1011;DHT22;494;48.744;10.106;2023-08-08T13:13:41;27.00;1.00
1011;DHT22;494;48.744;10.106;2023-08-08T13:16:10;27.00;1.00
1011;DHT22;494;48.744;10.106;2023-08-08T13:18:45;27.00;1.00
1011;DHT22;494;48.744;10.106;2023-08-08T13:21:38;26.70;1.00
1011;DHT22;494;48.744;10.106;2023-08-08T13:24:09;26.30;1.00
1011;DHT22;494;48.744;10.106;2023-08-08T13:26:42;26.10;1.00
1011;DHT22;494;48.744;10.106;2023-08-08T13:29:31;25.80;1.00
1011;DHT22;494;48.744;10.106;2023-08-08T13:32:03;25.20;1.00
1011;DHT22;494;48.744;10.106;2023-08-08T13:34:34;25.00;1.00
1011;DHT22;494;48.744;10.106;2023-08-08T13:37:03;25.30;1.00
1011;DHT22;494;48.744;10.106;2023-08-08T13:39:33;25.80;1.00
1011;DHT22;494;48.744;10.106;2023-08-08T13:42:03;26.20;1.00
1011;DHT22;494;48.744;10.106;2023-08-08T13:44:34;26.80;1.00
1011;DHT22;494;48.744;10.106;2023-08-08T13:47:03;27.20;1.00
1011;DHT22;494;48.744;10.106;2023-08-08T13:49:33;27.70;1.00
1011;DHT22;494;48.744;10.106;2023-08-08T13:52:05;28.00;1.00
1011;DHT22;494;48.744;10.106;2023-08-08T13:54:35;27.80;1.00
1011;DHT22;494;48.744;10.106;2023-08-08T13:57:05;27.50;1.00
1011;DHT22;494;48.744;10.106;2023-08-08T13:59:37;27.20;1.00
1011;DHT22;494;48.744;10.106;2023-08-08T14:02:07;27.20;1.00
1011;DHT22;494;48.744;10.106;2023-08-08T14:04:36;27.20;1.00
1011;DHT22;494;48.744;10.106;2023-08-08T14:07:06;27.20;1.00
1011;DHT22;494;48.744;10.106;2023-08-08T14:09:36;27.00;1.00
1011;DHT22;494;48.744;10.106;2023-08-08T14:12:07;27.00;1.00
1011;DHT22;494;48.744;10.106;2023-08-08T14:14:53;27.30;1.00
1011;DHT22;494;48.744;10.106;2023-08-08T14:17:27;27.30;1.00
1011;DHT22;494;48.744;10.106;2023-08-08T14:19:59;27.30;1.00
1011;DHT22;494;48.744;10.106;2023-08-08T14:22:45;27.30;1.00
1011;DHT22;494;48.744;10.106;2023-08-08T14:25:30;26.70;1.00
1011;DHT22;494;48.744;10.106;2023-08-08T14:28:04;26.30;1.00
1011;DHT22;494;48.744;10.106;2023-08-08T14:30:36;26.00;1.00
1011;DHT22;494;48.744;10.106;2023-08-08T14:33:06;25.80;1.00
1011;DHT22;494;48.744;10.106;2023-08-08T14:35:38;25.60;1.00
1011;DHT22;494;48.744;10.106;2023-08-08T14:38:08;25.40;1.00
1011;DHT22;494;48.744;10.106;2023-08-08T14:40:37;25.20;1.00
1011;DHT22;494;48.744;10.106;2023-08-08T14:43:21;25.00;1.00
1011;DHT22;494;48.744;10.106;2023-08-08T14:45:55;24.80;1.00
1011;DHT22;494;48.744;10.106;2023-08-08T14:48:25;24.60;1.00
1011;DHT22;494;48.744;10.106;2023-08-08T14:50:55;24.50;1.00
1011;DHT22;494;48.744;10.106;2023-08-08T14:53:24;24.50;1.00
1011;DHT22;494;48.744;10.106;2023-08-08T14:55:55;24.50;1.00
1011;DHT22;494;48.744;10.106;2023-08-08T14:58:24;24.40;1.00
1011;DHT22;494;48.744;10.106;2023-08-08T15:00:58;24.30;1.00
1011;DHT22;494;48.744;10.106;2023-08-08T15:03:29;24.20;1.00
1011;DHT22;494;48.744;10.106;2023-08-08T15:06:03;24.00;1.00
1011;DHT22;494;48.744;10.106;2023-08-08T15:08:34;23.80;1.00
1011;DHT22;494;48.744;10.106;2023-08-08T15:11:05;23.70;1.00
1011;DHT22;494;48.744;10.106;2023-08-08T15:13:35;23.60;1.00
1011;DHT22;494;48.744;10.106;2023-08-08T15:16:07;23.70;1.00
1011;DHT22;494;48.744;10.106;2023-08-08T15:18:39;24.00;1.00
1011;DHT22;494;48.744;10.106;2023-08-08T15:21:30;24.20;1.00
1011;DHT22;494;48.744;10.106;2023-08-08T15:24:01;24.20;1.00
1011;DHT22;494;48.744;10.106;2023-08-08T15:26:30;24.50;1.00
1011;DHT22;494;48.744;10.106;2023-08-08T15:29:01;24.80;1.00
1011;DHT22;494;48.744;10.106;2023-08-08T15:31:35;25.00;1.00
1011;DHT22;494;48.744;10.106;2023-08-08T15:34:09;25.10;1.00
1011;DHT22;494;48.744;10.106;2023-08-08T15:45:16;26.00;1.00
1011;DHT22;494;48.744;10.106;2023-08-08T15:49:38;25.80;1.00
1011;DHT22;494;48.744;10.106;2023-08-08T15:52:07;24.90;1.00
1011;DHT22;494;48.744;10.106;2023-08-08T15:54:41;24.60;1.00
1011;DHT22;494;48.744;10.106;2023-08-08T15:57:12;24.10;1.00
1011;DHT22;494;48.744;10.106;2023-08-08T16:06:12;23.80;1.00
1011;DHT22;494;48.744;10.106;2023-08-08T16:08:51;23.70;1.00
1011;DHT22;494;48.744;10.106;2023-08-08T16:11:29;23.80;1.00
1011;DHT22;494;48.744;10.106;2023-08-08T16:14:00;23.60;1.00
1011;DHT22;494;48.744;10.106;2023-08-08T16:16:58;23.40;1.00
1011;DHT22;494;48.744;10.106;2023-08-08T16:19:34;23.40;1.00
1011;DHT22;494;48.744;10.106;2023-08-08T17:00:38;23.00;1.00
1011;DHT22;494;48.744;10.106;2023-08-08T17:52:25;22.30;1.00
1011;DHT22;494;48.744;10.106;2023-08-08T17:54:58;22.20;1.00
1011;DHT22;494;48.744;10.106;2023-08-08T17:57:51;22.20;1.00
1011;DHT22;494;48.744;10.106;2023-08-08T18:00:23;22.30;1.00
1011;DHT22;494;48.744;10.106;2023-08-08T18:02:53;22.40;1.00
1011;DHT22;494;48.744;10.106;2023-08-08T18:05:23;22.30;1.00
1011;DHT22;494;48.744;10.106;2023-08-08T18:07:54;22.30;1.00
1011;DHT22;494;48.744;10.106;2023-08-08T18:43:58;20.50;1.00
1011;DHT22;494;48.744;10.106;2023-08-08T18:46:29;20.10;1.00
1011;DHT22;494;48.744;10.106;2023-08-08T18:49:19;19.90;1.00
1011;DHT22;494;48.744;10.106;2023-08-08T18:51:49;19.90;1.00
1011;DHT22;494;48.744;10.106;2023-08-08T18:54:30;19.80;1.00
1011;DHT22;494;48.744;10.106;2023-08-08T18:57:04;19.70;1.00
1011;DHT22;494;48.744;10.106;2023-08-08T18:59:35;19.70;1.00
1011;DHT22;494;48.744;10.106;2023-08-08T19:02:05;19.70;1.00
1011;DHT22;494;48.744;10.106;2023-08-08T19:04:35;19.70;1.00
1011;DHT22;494;48.744;10.106;2023-08-08T19:07:04;19.60;1.00
1011;DHT22;494;48.744;10.106;2023-08-08T19:09:36;19.40;1.00
1011;DHT22;494;48.744;10.106;2023-08-08T19:16:11;19.00;1.00
1011;DHT22;494;48.744;10.106;2023-08-08T19:18:41;18.80;1.00
1011;DHT22;494;48.744;10.106;2023-08-08T19:21:16;18.80;1.00
1011;DHT22;494;48.744;10.106;2023-08-08T19:23:47;18.70;1.00
1011;DHT22;494;48.744;10.106;2023-08-08T19:26:16;18.60;1.00
1011;DHT22;494;48.744;10.106;2023-08-08T19:28:46;18.50;1.00
1011;DHT22;494;48.744;10.106;2023-08-08T19:31:16;18.40;1.00
1011;DHT22;494;48.744;10.106;2023-08-08T19:33:46;18.30;1.00
1011;DHT22;494;48.744;10.106;2023-08-08T19:36:34;18.30;1.00
1011;DHT22;494;48.744;10.106;2023-08-08T19:39:04;18.20;1.00
1011;DHT22;494;48.744;10.106;2023-08-08T19:41:36;18.20;1.00
1011;DHT22;494;48.744;10.106;2023-08-08T19:44:07;18.10;1.00
1011;DHT22;494;48.744;10.106;2023-08-08T19:46:44;18.00;1.00
1011;DHT22;494;48.744;10.106;2023-08-08T19:49:38;18.00;1.00
1011;DHT22;494;48.744;10.106;2023-08-08T19:52:08;18.00;1.00
1011;DHT22;494;48.744;10.106;2023-08-08T19:54:38;18.10;1.00
1011;DHT22;494;48.744;10.106;2023-08-08T19:57:11;18.10;1.00
1011;DHT22;494;48.744;10.106;2023-08-08T19:59:42;18.10;1.00
1011;DHT22;494;48.744;10.106;2023-08-08T20:02:15;18.10;1.00
1011;DHT22;494;48.744;10.106;2023-08-08T20:04:51;18.10;1.00
1011;DHT22;494;48.744;10.106;2023-08-08T20:07:22;18.10;1.00
1011;DHT22;494;48.744;10.106;2023-08-08T20:09:53;18.10;1.00
1011;DHT22;494;48.744;10.106;2023-08-08T20:12:39;18.10;1.00
1011;DHT22;494;48.744;10.106;2023-08-08T20:15:10;18.10;1.00
1011;DHT22;494;48.744;10.106;2023-08-08T20:17:44;18.10;1.00
1011;DHT22;494;48.744;10.106;2023-08-08T20:20:13;18.10;1.00
1011;DHT22;494;48.744;10.106;2023-08-08T20:22:43;18.20;1.00
1011;DHT22;494;48.744;10.106;2023-08-08T20:25:15;18.20;1.00
1011;DHT22;494;48.744;10.106;2023-08-08T20:28:05;18.20;1.00
1011;DHT22;494;48.744;10.106;2023-08-08T20:30:50;18.10;1.00
1011;DHT22;494;48.744;10.106;2023-08-08T20:33:24;18.20;1.00
1011;DHT22;494;48.744;10.106;2023-08-08T20:41:49;18.30;1.00
1011;DHT22;494;48.744;10.106;2023-08-08T20:50:38;18.30;1.00
1011;DHT22;494;48.744;10.106;2023-08-08T20:53:08;18.30;1.00
1011;DHT22;494;48.744;10.106;2023-08-08T20:55:40;18.40;1.00
1011;DHT22;494;48.744;10.106;2023-08-08T21:06:51;18.30;1.00
1011;DHT22;494;48.744;10.106;2023-08-08T21:12:42;18.40;1.00
1011;DHT22;494;48.744;10.106;2023-08-08T21:15:11;18.40;1.00
1011;DHT22;494;48.744;10.106;2023-08-08T21:17:47;18.30;1.00
1011;DHT22;494;48.744;10.106;2023-08-08T21:20:17;18.30;1.00
1011;DHT22;494;48.744;10.106;2023-08-08T21:22:53;18.30;1.00
1011;DHT22;494;48.744;10.106;2023-08-08T21:25:23;18.30;1.00
1011;DHT22;494;48.744;10.106;2023-08-08T21:27:53;18.30;1.00
1011;DHT22;494;48.744;10.106;2023-08-08T21:33:16;18.20;1.00
1011;DHT22;494;48.744;10.106;2023-08-08T21:35:45;18.20;1.00
1011;DHT22;494;48.744;10.106;2023-08-08T21:38:21;18.20;1.00
1011;DHT22;494;48.744;10.106;2023-08-08T21:40:53;18.20;1.00
1011;DHT22;494;48.744;10.106;2023-08-08T21:43:25;18.10;1.00
1011;DHT22;494;48.744;10.106;2023-08-08T21:45:57;18.00;1.00
1011;DHT22;494;48.744;10.106;2023-08-08T21:48:32;18.00;1.00
1011;DHT22;494;48.744;10.106;2023-08-08T21:51:05;18.00;1.00
1011;DHT22;494;48.744;10.106;2023-08-08T21:53:41;17.90;1.00
1011;DHT22;494;48.744;10.106;2023-08-08T21:56:16;17.80;1.00
1011;DHT22;494;48.744;10.106;2023-08-08T21:58:46;17.70;1.00
1011;DHT22;494;48.744;10.106;2023-08-08T22:01:16;17.60;1.00
1011;DHT22;494;48.744;10.106;2023-08-08T22:03:51;17.60;1.00
1011;DHT22;494;48.744;10.106;2023-08-08T22:06:23;17.50;1.00
1011;DHT22;494;48.744;10.106;2023-08-08T22:08:59;17.40;1.00
1011;DHT22;494;48.744;10.106;2023-08-08T22:11:32;17.30;1.00
1011;DHT22;494;48.744;10.106;2023-08-08T22:14:02;17.30;1.00
1011;DHT22;494;48.744;10.106;2023-08-08T22:16:33;17.30;1.00
1011;DHT22;494;48.744;10.106;2023-08-08T22:19:04;17.30;1.00
1011;DHT22;494;48.744;10.106;2023-08-08T22:21:34;17.30;1.00
1011;DHT22;494;48.744;10.106;2023-08-08T22:24:05;17.30;1.00
1011;DHT22;494;48.744;10.106;2023-08-08T22:26:36;17.30;1.00
1011;DHT22;494;48.744;10.106;2023-08-08T22:29:05;17.20;1.00
1011;DHT22;494;48.744;10.106;2023-08-08T22:31:38;17.30;1.00
1011;DHT22;494;48.744;10.106;2023-08-08T22:34:07;17.30;1.00
1011;DHT22;494;48.744;10.106;2023-08-08T22:36:36;17.30;1.00
1011;DHT22;494;48.744;10.106;2023-08-08T22:39:07;17.30;1.00
1011;DHT22;494;48.744;10.106;2023-08-08T22:41:37;17.30;1.00
1011;DHT22;494;48.744;10.106;2023-08-08T22:44:07;17.30;1.00
1011;DHT22;494;48.744;10.106;2023-08-08T22:46:37;17.30;1.00
1011;DHT22;494;48.744;10.106;2023-08-08T22:49:06;17.30;1.00
1011;DHT22;494;48.744;10.106;2023-08-08T22:51:41;17.30;1.00
1011;DHT22;494;48.744;10.106;2023-08-08T22:54:13;17.30;1.00
1011;DHT22;494;48.744;10.106;2023-08-08T22:56:46;17.30;1.00
1011;DHT22;494;48.744;10.106;2023-08-08T22:59:16;17.30;1.00
1011;DHT22;494;48.744;10.106;2023-08-08T23:01:48;17.30;1.00
1011;DHT22;494;48.744;10.106;2023-08-08T23:04:17;17.30;1.00
1011;DHT22;494;48.744;10.106;2023-08-08T23:06:49;17.40;1.00
1011;DHT22;494;48.744;10.106;2023-08-08T23:09:22;17.40;1.00
1011;DHT22;494;48.744;10.106;2023-08-08T23:11:55;17.40;1.00
1011;DHT22;494;48.744;10.106;2023-08-08T23:14:26;17.40;1.00
1011;DHT22;494;48.744;10.106;2023-08-08T23:16:58;17.50;1.00
1011;DHT22;494;48.744;10.106;2023-08-08T23:19:29;17.50;1.00
1011;DHT22;494;48.744;10.106;2023-08-08T23:21:58;17.50;1.00
1011;DHT22;494;48.744;10.106;2023-08-08T23:24:30;17.50;1.00
1011;DHT22;494;48.744;10.106;2023-08-08T23:26:59;17.50;1.00
1011;DHT22;494;48.744;10.106;2023-08-08T23:29:29;17.50;1.00
1011;DHT22;494;48.744;10.106;2023-08-08T23:31:57;17.50;1.00
1011;DHT22;494;48.744;10.106;2023-08-08T23:34:27;17.50;1.00
1011;DHT22;494;48.744;10.106;2023-08-08T23:36:59;17.60;1.00
1011;DHT22;494;48.744;10.106;2023-08-08T23:39:35;17.60;1.00
1011;DHT22;494;48.744;10.106;2023-08-08T23:42:04;17.60;1.00
1011;DHT22;494;48.744;10.106;2023-08-08T23:44:33;17.60;1.00
1011;DHT22;494;48.744;10.106;2023-08-08T23:47:03;17.60;1.00
1011;DHT22;494;48.744;10.106;2023-08-08T23:49:32;17.60;1.00
1011;DHT22;494;48.744;10.106;2023-08-08T23:52:01;17.60;1.00
1011;DHT22;494;48.744;10.106;2023-08-08T23:54:32;17.50;1.00
1011;DHT22;494;48.744;10.106;2023-08-08T23:57:06;17.50;1.00
1011;DHT22;494;48.744;10.106;2023-08-08T23:59:35;17.40;1.00
